createdAt,value
2023-02-14T00:02:14.940Z,66.47
2023-02-14T00:04:41.503Z,75.80
2023-02-14T00:07:08.076Z,65.75
2023-02-14T00:09:34.526Z,69.40
2023-02-14T00:12:01.045Z,68.03
2023-02-14T00:14:27.508Z,67.28
2023-02-14T00:16:54.243Z,59.35
2023-02-14T00:19:22.619Z,58.55
2023-02-14T00:24:23.325Z,71.32
2023-02-14T00:26:50.638Z,76.90
2023-02-14T00:29:20.556Z,73.03
2023-02-14T00:31:47.415Z,71.45
2023-02-14T00:34:15.658Z,80.72
2023-02-14T00:36:43.028Z,80.35
2023-02-14T00:39:12.128Z,83.72
2023-02-14T00:41:39.576Z,80.50
2023-02-14T00:44:06.725Z,82.75
2023-02-14T00:46:34.134Z,80.13
2023-02-14T00:49:00.735Z,81.18
2023-02-14T00:51:27.758Z,75.78
2023-02-14T00:53:54.736Z,74.85
2023-02-14T00:56:21.661Z,71.45
2023-02-14T00:58:48.838Z,72.03
2023-02-14T01:01:16.912Z,68.78
2023-02-14T01:03:43.510Z,64.03
2023-02-14T01:06:10.058Z,72.55
2023-02-14T01:08:36.524Z,57.40
2023-02-14T01:11:11.848Z,58.70
2023-02-14T01:13:39.089Z,68.30
2023-02-14T01:16:08.670Z,62.88
2023-02-14T01:18:36.030Z,68.13
2023-02-14T01:21:16.239Z,63.25
2023-02-14T01:23:43.568Z,57.47
2023-02-14T01:26:10.818Z,63.60
2023-02-14T01:28:37.787Z,61.47
2023-02-14T01:31:27.454Z,60.58
2023-02-14T01:33:54.804Z,50.45
2023-02-14T01:36:51.724Z,65.50
2023-02-14T01:39:19.132Z,68.20
2023-02-14T01:41:47.464Z,65.55
2023-02-14T01:44:14.416Z,69.97
2023-02-14T01:46:43.988Z,60.78
2023-02-14T01:49:16.951Z,61.45
2023-02-14T01:51:57.324Z,60.85
2023-02-14T01:54:26.413Z,65.80
2023-02-14T01:56:57.451Z,67.22
2023-02-14T01:59:25.823Z,61.22
2023-02-14T02:01:52.937Z,71.10
2023-02-14T02:04:23.858Z,61.70
2023-02-14T02:06:56.304Z,65.82
2023-02-14T02:09:31.275Z,68.05
2023-02-14T02:11:57.829Z,55.05
2023-02-14T02:14:24.481Z,66.47
2023-02-14T02:17:09.794Z,56.55
2023-02-14T02:19:58.015Z,56.22
2023-02-14T02:22:57.235Z,55.67
2023-02-14T02:26:00.998Z,59.50
2023-02-14T02:29:08.794Z,55.63
2023-02-14T02:32:27.329Z,46.20
2023-02-14T02:35:17.965Z,43.85
2023-02-14T02:40:36.111Z,47.90
2023-02-14T02:43:24.295Z,51.13
2023-02-14T02:46:16.606Z,47.47
2023-02-14T02:48:57.261Z,48.55
2023-02-14T02:51:37.155Z,49.83
2023-02-14T02:54:10.067Z,57.00
2023-02-14T02:56:41.848Z,51.15
2023-02-14T02:59:42.078Z,54.95
2023-02-14T03:02:23.849Z,55.17
2023-02-14T03:04:59.136Z,68.35
2023-02-14T03:07:28.618Z,60.10
2023-02-14T03:09:58.193Z,66.78
2023-02-14T03:12:33.751Z,60.30
2023-02-14T03:15:35.551Z,66.65
2023-02-14T03:18:07.110Z,60.95
2023-02-14T03:20:55.048Z,59.20
2023-02-14T03:23:29.982Z,64.57
2023-02-14T03:26:14.326Z,60.40
2023-02-14T03:29:02.846Z,63.90
2023-02-14T03:31:45.008Z,61.65
2023-02-14T03:34:16.233Z,66.47
2023-02-14T03:36:47.570Z,63.65
2023-02-14T03:39:33.720Z,62.03
2023-02-14T03:42:06.384Z,57.28
2023-02-14T03:44:34.911Z,58.85
2023-02-14T03:47:05.888Z,62.45
2023-02-14T03:49:37.080Z,64.20
2023-02-14T03:52:04.560Z,60.15
2023-02-14T03:54:31.795Z,62.47
2023-02-14T03:57:12.166Z,55.63
2023-02-14T03:59:38.809Z,59.88
2023-02-14T04:02:23.778Z,55.03
2023-02-14T04:04:51.755Z,58.95
2023-02-14T04:07:23.012Z,56.78
2023-02-14T04:09:49.771Z,60.95
2023-02-14T04:12:21.721Z,54.45
2023-02-14T04:15:11.258Z,47.38
2023-02-14T04:17:37.821Z,41.35
2023-02-14T04:20:05.234Z,41.40
2023-02-14T04:22:32.258Z,42.83
2023-02-14T04:24:59.052Z,53.30
2023-02-14T04:27:25.596Z,42.10
2023-02-14T04:29:52.316Z,43.10
2023-02-14T04:32:20.809Z,39.13
2023-02-14T04:34:47.571Z,39.28
2023-02-14T04:37:16.854Z,44.33
2023-02-14T04:39:46.290Z,44.25
2023-02-14T04:42:13.302Z,54.97
2023-02-14T04:44:39.871Z,50.15
2023-02-14T04:47:07.613Z,46.58
2023-02-14T04:49:34.412Z,45.67
2023-02-14T04:52:01.808Z,38.90
2023-02-14T04:54:28.516Z,44.83
2023-02-14T04:56:55.089Z,34.47
2023-02-14T04:59:23.354Z,37.33
2023-02-14T05:01:51.780Z,33.95
2023-02-14T05:04:18.568Z,41.83
2023-02-14T05:06:45.049Z,36.85
2023-02-14T05:09:11.597Z,39.20
2023-02-14T05:11:40.234Z,41.33
2023-02-14T05:14:09.663Z,42.92
2023-02-14T05:16:36.254Z,39.88
2023-02-14T05:19:02.755Z,34.70
2023-02-14T05:21:29.264Z,35.33
2023-02-14T05:23:55.734Z,28.27
2023-02-14T05:26:23.185Z,29.48
2023-02-14T05:28:49.800Z,30.38
2023-02-14T05:31:16.482Z,35.67
2023-02-14T05:33:43.622Z,31.35
2023-02-14T05:36:10.718Z,27.25
2023-02-14T05:38:37.207Z,22.75
2023-02-14T05:41:04.109Z,22.65
2023-02-14T05:43:30.597Z,25.83
2023-02-14T05:45:57.851Z,25.75
2023-02-14T05:48:24.726Z,29.45
2023-02-14T05:50:51.623Z,29.27
2023-02-14T05:53:18.145Z,28.63
2023-02-14T05:55:44.607Z,29.85
2023-02-14T05:58:11.178Z,31.42
2023-02-14T06:00:40.709Z,27.23
2023-02-14T06:03:07.754Z,28.88
2023-02-14T06:05:34.644Z,32.90
2023-02-14T06:08:03.061Z,29.80
2023-02-14T06:10:29.813Z,34.35
2023-02-14T06:12:56.837Z,38.67
2023-02-14T06:15:23.605Z,32.13
2023-02-14T06:17:54.784Z,36.75
2023-02-14T06:20:22.240Z,34.53
2023-02-14T06:22:48.714Z,54.97
2023-02-14T06:25:15.974Z,46.28
2023-02-14T06:27:42.810Z,56.58
2023-02-14T06:30:10.526Z,50.47
2023-02-14T06:32:37.527Z,39.08
2023-02-14T06:35:04.933Z,34.92
2023-02-14T06:37:31.548Z,36.60
2023-02-14T06:39:58.252Z,28.63
2023-02-14T06:42:25.076Z,26.10
2023-02-14T06:44:53.520Z,19.83
2023-02-14T06:47:20.332Z,17.40
2023-02-14T06:49:46.859Z,15.57
2023-02-14T06:52:13.361Z,21.15
2023-02-14T06:54:39.935Z,17.02
2023-02-14T06:57:06.401Z,17.98
2023-02-14T06:59:32.946Z,17.60
2023-02-14T07:01:59.785Z,15.20
2023-02-14T07:04:26.412Z,18.67
2023-02-14T07:06:53.292Z,19.80
2023-02-14T07:09:20.214Z,19.80
2023-02-14T07:11:46.784Z,17.88
2023-02-14T07:14:13.753Z,16.48
2023-02-14T07:16:40.568Z,16.63
2023-02-14T07:19:07.090Z,19.77
2023-02-14T07:21:33.608Z,17.13
2023-02-14T07:24:00.151Z,15.68
2023-02-14T07:26:26.869Z,18.58
2023-02-14T07:28:53.428Z,18.58
2023-02-14T07:31:20.032Z,17.33
2023-02-14T07:33:47.028Z,16.38
2023-02-14T07:36:13.511Z,18.60
2023-02-14T07:38:40.371Z,17.15
2023-02-14T07:41:06.848Z,21.27
2023-02-14T07:43:33.355Z,24.50
2023-02-14T07:46:01.314Z,24.27
2023-02-14T07:48:30.665Z,34.67
2023-02-14T07:50:58.715Z,51.35
2023-02-14T07:53:25.575Z,97.72
2023-02-14T07:55:52.580Z,79.03
2023-02-14T07:58:19.433Z,85.57
2023-02-14T08:00:46.256Z,77.60
2023-02-14T08:03:13.805Z,81.63
2023-02-14T08:05:41.070Z,64.72
2023-02-14T08:08:08.038Z,70.78
2023-02-14T08:10:34.768Z,65.82
2023-02-14T08:13:01.685Z,66.22
2023-02-14T08:15:30.769Z,65.25
2023-02-14T08:17:57.265Z,63.40
2023-02-14T08:20:23.724Z,62.72
2023-02-14T08:22:50.200Z,69.38
2023-02-14T08:25:16.685Z,66.65
2023-02-14T08:27:43.165Z,70.57
2023-02-14T08:30:10.023Z,80.32
2023-02-14T08:32:36.620Z,81.75
2023-02-14T08:35:03.455Z,79.72
2023-02-14T08:37:30.501Z,70.88
2023-02-14T08:39:57.043Z,75.47
2023-02-14T08:42:23.637Z,74.70
2023-02-14T08:44:50.221Z,78.00
2023-02-14T08:47:16.830Z,76.20
2023-02-14T08:49:43.912Z,86.03
2023-02-14T08:52:10.646Z,75.35
2023-02-14T08:54:37.153Z,71.90
2023-02-14T08:57:04.061Z,75.28
2023-02-14T08:59:30.721Z,73.25
2023-02-14T09:01:57.372Z,73.35
2023-02-14T09:04:23.896Z,70.13
2023-02-14T09:06:50.465Z,70.82
2023-02-14T09:09:19.917Z,66.55
2023-02-14T09:11:46.746Z,66.93
2023-02-14T09:14:13.395Z,64.75
2023-02-14T09:16:39.992Z,67.00
2023-02-14T09:19:06.622Z,69.07
2023-02-14T09:21:33.105Z,66.72
2023-02-14T09:23:59.781Z,65.85
2023-02-14T09:26:26.297Z,66.72
2023-02-14T09:28:52.834Z,59.67
2023-02-14T09:31:22.184Z,62.55
2023-02-14T09:33:49.739Z,59.22
2023-02-14T09:36:16.478Z,72.05
2023-02-14T09:38:42.985Z,65.97
2023-02-14T09:41:12.767Z,64.88
2023-02-14T09:43:46.827Z,64.68
2023-02-14T09:46:14.982Z,64.55
2023-02-14T09:48:45.233Z,67.68
2023-02-14T09:51:15.068Z,61.30
2023-02-14T09:53:47.363Z,62.95
2023-02-14T09:56:52.296Z,63.47
2023-02-14T09:59:36.206Z,59.28
2023-02-14T10:02:38.776Z,66.22
2023-02-14T10:05:20.352Z,69.93
2023-02-14T10:07:57.416Z,65.28
2023-02-14T10:10:48.064Z,63.90
2023-02-14T10:13:39.108Z,66.38
2023-02-14T10:16:31.692Z,68.40
2023-02-14T10:19:04.940Z,61.60
2023-02-14T10:21:36.384Z,59.78
2023-02-14T10:24:19.224Z,62.50
2023-02-14T10:26:48.695Z,64.13
2023-02-14T10:29:17.499Z,65.55
2023-02-14T10:32:02.944Z,74.22
2023-02-14T10:34:37.633Z,67.03
2023-02-14T10:37:12.122Z,69.03
2023-02-14T10:40:13.339Z,67.20
2023-02-14T10:43:01.329Z,64.80
2023-02-14T10:45:39.417Z,66.80
2023-02-14T10:48:25.327Z,74.18
2023-02-14T10:51:12.640Z,66.55
2023-02-14T10:53:57.398Z,61.03
2023-02-14T10:56:31.649Z,64.22
2023-02-14T10:58:59.666Z,61.17
2023-02-14T11:01:26.724Z,60.03
2023-02-14T11:03:59.000Z,59.47
2023-02-14T11:06:25.554Z,65.90
2023-02-14T11:08:52.073Z,55.97
2023-02-14T11:11:37.710Z,58.15
2023-02-14T11:14:25.601Z,65.10
2023-02-14T11:16:53.715Z,60.70
2023-02-14T11:19:24.257Z,60.47
2023-02-14T11:21:51.484Z,58.58
2023-02-14T11:24:34.663Z,54.22
2023-02-14T11:27:14.982Z,52.75
2023-02-14T11:29:41.516Z,59.92
2023-02-14T11:32:20.241Z,62.65
2023-02-14T11:34:54.544Z,67.57
2023-02-14T11:37:24.101Z,62.90
2023-02-14T11:39:51.368Z,63.00
2023-02-14T11:42:42.705Z,68.32
2023-02-14T11:45:34.632Z,64.82
2023-02-14T11:48:27.844Z,68.50
2023-02-14T11:51:10.001Z,65.63
2023-02-14T11:53:48.394Z,64.07
2023-02-14T11:56:16.137Z,58.33
2023-02-14T11:58:53.574Z,56.25
2023-02-14T12:01:29.264Z,60.30
2023-02-14T12:03:58.886Z,59.85
2023-02-14T12:06:33.292Z,60.00
2023-02-14T12:09:24.062Z,58.28
2023-02-14T12:12:05.852Z,60.10
2023-02-14T12:14:35.043Z,58.88
2023-02-14T12:17:13.890Z,60.45
2023-02-14T12:19:55.793Z,62.50
2023-02-14T12:22:28.357Z,62.65
2023-02-14T12:25:20.893Z,58.20
2023-02-14T12:28:09.245Z,59.40
2023-02-14T12:30:36.034Z,56.10
2023-02-14T12:33:02.741Z,63.42
2023-02-14T12:35:50.548Z,57.35
2023-02-14T12:38:35.605Z,59.53
2023-02-14T12:41:40.388Z,62.05
2023-02-14T12:44:28.142Z,59.67
2023-02-14T12:46:57.285Z,63.35
2023-02-14T12:49:43.024Z,61.03
2023-02-14T12:52:21.223Z,64.30
2023-02-14T12:55:15.253Z,63.90
2023-02-14T12:57:52.443Z,64.10
2023-02-14T13:00:48.105Z,61.72
2023-02-14T13:03:42.099Z,61.05
2023-02-14T13:06:27.541Z,60.00
2023-02-14T13:09:44.905Z,59.65
2023-02-14T13:12:24.395Z,59.17
2023-02-14T13:15:05.892Z,51.67
2023-02-14T13:17:47.215Z,55.15
2023-02-14T13:20:35.416Z,53.35
2023-02-14T13:23:10.969Z,56.55
2023-02-14T13:25:41.266Z,57.80
2023-02-14T13:30:37.328Z,59.50
2023-02-14T13:33:37.562Z,50.90
2023-02-14T13:36:07.865Z,46.85
2023-02-14T13:41:02.933Z,46.22
2023-02-14T13:43:47.190Z,49.40
2023-02-14T13:46:17.666Z,48.03
2023-02-14T13:49:13.779Z,48.83
2023-02-14T13:51:51.568Z,45.17
2023-02-14T13:54:34.898Z,40.97
2023-02-14T13:57:25.693Z,42.50
2023-02-14T14:00:16.983Z,38.53
2023-02-14T14:02:50.594Z,44.10
2023-02-14T14:05:30.969Z,38.30
2023-02-14T14:08:22.345Z,39.85
2023-02-14T14:10:49.866Z,38.90
2023-02-14T14:13:41.332Z,36.95
2023-02-14T14:16:28.479Z,40.75
2023-02-14T14:19:01.178Z,47.05
2023-02-14T14:21:32.549Z,38.88
2023-02-14T14:24:14.304Z,38.88
2023-02-14T14:26:59.511Z,43.00
2023-02-14T14:29:35.652Z,36.65
2023-02-14T14:32:32.937Z,40.75
2023-02-14T14:35:05.802Z,44.88
2023-02-14T14:37:37.692Z,46.17
2023-02-14T14:40:06.588Z,42.63
2023-02-14T14:42:37.807Z,39.42
2023-02-14T14:45:08.509Z,45.03
2023-02-14T14:47:40.805Z,43.47
2023-02-14T14:50:13.588Z,40.55
2023-02-14T14:52:43.576Z,42.05
2023-02-14T14:55:17.836Z,40.60
2023-02-14T14:57:49.619Z,44.50
2023-02-14T15:00:18.503Z,41.83
2023-02-14T15:02:56.364Z,41.20
2023-02-14T15:05:44.012Z,44.72
2023-02-14T15:08:21.365Z,42.33
2023-02-14T15:10:55.065Z,43.80
2023-02-14T15:13:31.627Z,42.05
2023-02-14T15:15:58.796Z,39.30
2023-02-14T15:18:25.491Z,37.97
2023-02-14T15:20:53.237Z,41.60
2023-02-14T15:23:23.082Z,41.60
2023-02-14T15:25:50.159Z,37.63
2023-02-14T15:28:31.374Z,40.95
2023-02-14T15:31:07.094Z,40.05
2023-02-14T15:33:34.298Z,41.53
2023-02-14T15:36:04.729Z,44.67
2023-02-14T15:38:32.008Z,42.67
2023-02-14T15:40:59.439Z,40.15
2023-02-14T15:43:33.812Z,40.00
2023-02-14T15:46:30.190Z,42.53
2023-02-14T15:48:58.583Z,43.22
2023-02-14T15:51:28.071Z,44.33
2023-02-14T15:54:00.802Z,45.25
2023-02-14T15:56:29.192Z,43.75
2023-02-14T15:59:03.413Z,46.50
2023-02-14T16:01:31.624Z,45.08
2023-02-14T16:04:00.404Z,46.10
2023-02-14T16:06:38.764Z,42.70
2023-02-14T16:09:08.045Z,41.15
2023-02-14T16:11:36.940Z,40.40
2023-02-14T16:14:27.368Z,35.47
2023-02-14T16:17:05.535Z,34.85
2023-02-14T16:19:36.931Z,37.03
2023-02-14T16:22:03.734Z,39.00
2023-02-14T16:24:30.218Z,40.70
2023-02-14T16:26:56.689Z,40.17
2023-02-14T16:29:23.198Z,40.83
2023-02-14T16:34:41.998Z,42.63
2023-02-14T16:37:21.190Z,40.50
2023-02-14T16:39:48.047Z,45.55
2023-02-14T16:42:16.242Z,47.17
2023-02-14T16:44:43.131Z,49.33
2023-02-14T16:47:13.891Z,41.70
2023-02-14T16:49:41.129Z,41.17
2023-02-14T16:52:39.314Z,43.85
2023-02-14T16:55:06.590Z,47.63
2023-02-14T16:57:37.250Z,39.65
2023-02-14T17:00:05.009Z,42.53
2023-02-14T17:02:31.998Z,41.80
2023-02-14T17:04:58.493Z,43.00
2023-02-14T17:07:25.467Z,45.70
2023-02-14T17:09:55.893Z,45.38
2023-02-14T17:12:25.833Z,42.28
2023-02-14T17:14:54.368Z,40.17
2023-02-14T17:17:21.293Z,37.45
2023-02-14T17:19:47.942Z,40.38
2023-02-14T17:22:14.660Z,36.35
2023-02-14T17:24:41.361Z,39.17
2023-02-14T17:27:08.210Z,35.28
2023-02-14T17:29:34.734Z,40.45
2023-02-14T17:32:01.416Z,36.10
2023-02-14T17:34:33.753Z,33.55
2023-02-14T17:37:00.347Z,35.47
2023-02-14T17:39:26.874Z,36.92
2023-02-14T17:41:53.439Z,37.92
2023-02-14T17:44:22.474Z,36.65
2023-02-14T17:46:49.030Z,36.67
2023-02-14T17:49:15.643Z,38.25
2023-02-14T17:51:42.104Z,44.30
2023-02-14T17:54:09.591Z,44.15
2023-02-14T17:56:36.133Z,40.72
2023-02-14T17:59:02.921Z,40.47
2023-02-14T18:01:30.253Z,42.30
2023-02-14T18:03:57.297Z,39.83
2023-02-14T18:06:23.907Z,41.63
2023-02-14T18:08:51.069Z,42.58
2023-02-14T18:11:20.277Z,41.25
2023-02-14T18:13:47.037Z,43.50
2023-02-14T18:16:16.336Z,39.05
2023-02-14T18:18:43.027Z,41.00
2023-02-14T18:21:11.590Z,44.78
2023-02-14T18:23:38.333Z,46.53
2023-02-14T18:26:07.217Z,50.75
2023-02-14T18:28:34.875Z,46.80
2023-02-14T18:31:06.183Z,42.50
2023-02-14T18:33:33.541Z,44.75
2023-02-14T18:36:05.428Z,39.83
2023-02-14T18:38:33.677Z,42.33
2023-02-14T18:41:07.548Z,45.70
2023-02-14T18:43:34.971Z,40.10
2023-02-14T18:46:15.990Z,36.05
2023-02-14T18:48:42.663Z,31.95
2023-02-14T18:51:23.918Z,37.80
2023-02-14T18:53:51.153Z,34.03
2023-02-14T18:56:20.570Z,31.60
2023-02-14T18:58:49.128Z,35.50
2023-02-14T19:01:17.963Z,34.50
2023-02-14T19:03:45.025Z,29.35
2023-02-14T19:06:12.432Z,31.98
2023-02-14T19:08:40.426Z,33.50
2023-02-14T19:11:26.612Z,35.35
2023-02-14T19:13:55.282Z,35.25
2023-02-14T19:16:27.763Z,36.40
2023-02-14T19:18:55.069Z,34.50
2023-02-14T19:21:24.178Z,33.03
2023-02-14T19:23:53.535Z,34.90
2023-02-14T19:26:23.318Z,32.70
2023-02-14T19:28:53.688Z,36.28
2023-02-14T19:33:47.067Z,37.70
2023-02-14T19:36:16.476Z,38.00
2023-02-14T19:38:45.392Z,40.15
2023-02-14T19:41:24.038Z,34.22
2023-02-14T19:43:51.465Z,40.80
2023-02-14T19:46:20.183Z,48.15
2023-02-14T19:48:47.386Z,39.92
2023-02-14T19:51:25.570Z,37.10
2023-02-14T19:53:53.911Z,50.15
2023-02-14T19:56:21.773Z,49.17
2023-02-14T19:58:52.295Z,43.92
2023-02-14T20:01:28.679Z,40.22
2023-02-14T20:03:55.233Z,34.05
2023-02-14T20:06:22.733Z,41.60
2023-02-14T20:08:49.690Z,39.30
2023-02-14T20:11:36.445Z,41.45
2023-02-14T20:14:03.864Z,37.47
2023-02-14T20:16:32.444Z,38.30
2023-02-14T20:19:05.030Z,35.03
2023-02-14T20:21:31.812Z,43.67
2023-02-14T20:23:59.551Z,40.13
2023-02-14T20:26:26.450Z,39.13
2023-02-14T20:28:52.920Z,39.60
2023-02-14T20:31:19.759Z,37.97
2023-02-14T20:33:47.320Z,41.70
2023-02-14T20:36:14.150Z,40.53
2023-02-14T20:38:40.652Z,39.92
2023-02-14T20:41:12.652Z,47.53
2023-02-14T20:43:39.688Z,40.50
2023-02-14T20:46:08.675Z,37.30
2023-02-14T20:48:35.435Z,32.03
2023-02-14T20:51:13.255Z,37.83
2023-02-14T20:53:40.382Z,31.83
2023-02-14T20:56:07.227Z,31.73
2023-02-14T20:58:35.198Z,30.85
2023-02-14T21:01:15.507Z,35.72
2023-02-14T21:03:43.668Z,32.57
2023-02-14T21:06:10.710Z,32.15
2023-02-14T21:08:38.056Z,30.05
2023-02-14T21:11:06.227Z,30.55
2023-02-14T21:13:33.261Z,33.60
2023-02-14T21:16:17.027Z,31.80
2023-02-14T21:18:45.187Z,30.23
2023-02-14T21:21:18.444Z,30.75
2023-02-14T21:23:45.261Z,32.88
2023-02-14T21:26:11.778Z,35.00
2023-02-14T21:28:38.268Z,34.70
2023-02-14T21:31:06.887Z,39.05
2023-02-14T21:33:33.990Z,32.60
2023-02-14T21:36:06.904Z,35.63
2023-02-14T21:38:33.756Z,32.70
2023-02-14T21:41:10.110Z,34.40
2023-02-14T21:43:39.087Z,31.67
2023-02-14T21:46:07.053Z,30.20
2023-02-14T21:48:33.823Z,29.85
2023-02-14T21:51:00.572Z,32.45
2023-02-14T21:53:27.323Z,35.58
2023-02-14T21:55:53.807Z,32.08
2023-02-14T21:58:20.298Z,34.67
2023-02-14T22:00:46.963Z,35.05
2023-02-14T22:03:13.586Z,33.40
2023-02-14T22:05:40.094Z,29.55
2023-02-14T22:08:06.532Z,30.52
2023-02-14T22:10:33.632Z,30.52
2023-02-14T22:13:00.792Z,27.98
2023-02-14T22:15:27.866Z,31.98
2023-02-14T22:17:54.422Z,29.67
2023-02-14T22:20:20.924Z,27.42
2023-02-14T22:22:47.449Z,27.20
2023-02-14T22:25:15.571Z,31.38
2023-02-14T22:27:42.124Z,29.67
2023-02-14T22:30:08.878Z,27.80
2023-02-14T22:32:35.458Z,28.95
2023-02-14T22:35:02.137Z,28.98
2023-02-14T22:37:28.853Z,28.10
2023-02-14T22:39:55.340Z,26.15
2023-02-14T22:42:22.137Z,25.38
2023-02-14T22:44:48.718Z,24.60
2023-02-14T22:47:15.491Z,23.10
2023-02-14T22:49:41.959Z,22.38
2023-02-14T22:52:08.701Z,22.60
2023-02-14T22:54:35.194Z,23.83
2023-02-14T22:57:01.853Z,25.95
2023-02-14T22:59:28.578Z,23.55
2023-02-14T23:01:55.149Z,28.73
2023-02-14T23:04:22.927Z,28.67
2023-02-14T23:06:51.208Z,26.55
2023-02-14T23:09:17.916Z,27.77
2023-02-14T23:11:45.909Z,26.33
2023-02-14T23:14:17.546Z,30.38
2023-02-14T23:16:46.966Z,28.45
2023-02-14T23:19:18.974Z,24.00
2023-02-14T23:21:45.961Z,24.80
2023-02-14T23:24:12.648Z,23.30
2023-02-14T23:26:39.157Z,25.67
2023-02-14T23:29:10.754Z,22.33
2023-02-14T23:31:37.520Z,24.70
2023-02-14T23:34:04.138Z,23.63
2023-02-14T23:36:31.044Z,24.27
2023-02-14T23:38:57.531Z,24.25
2023-02-14T23:41:24.080Z,28.50
2023-02-14T23:43:50.539Z,29.17
2023-02-14T23:46:17.341Z,28.55
2023-02-14T23:48:43.884Z,25.23
2023-02-14T23:51:10.358Z,26.42
2023-02-14T23:53:37.063Z,29.50
2023-02-14T23:56:03.802Z,27.20
2023-02-14T23:58:30.690Z,27.38
